createdAt,value
2023-01-13T00:03:13.775Z,2.01
2023-01-13T00:07:38.730Z,2.02
2023-01-13T00:11:56.814Z,1.96
2023-01-13T00:16:20.831Z,1.97
2023-01-13T00:20:44.933Z,1.98
2023-01-13T00:25:08.846Z,1.97
2023-01-13T00:29:33.692Z,2.03
2023-01-13T00:33:58.527Z,2.10
2023-01-13T00:38:22.704Z,2.18
2023-01-13T00:42:45.281Z,2.25
2023-01-13T00:47:10.216Z,2.34
2023-01-13T00:51:37.819Z,2.40
2023-01-13T00:56:01.717Z,2.35
2023-01-13T01:00:25.717Z,2.41
2023-01-13T01:04:49.663Z,2.37
2023-01-13T01:09:13.584Z,2.35
2023-01-13T01:13:37.700Z,2.32
2023-01-13T01:18:01.705Z,2.25
2023-01-13T01:22:26.501Z,2.13
2023-01-13T01:26:56.117Z,2.07
2023-01-13T01:31:20.068Z,2.15
2023-01-13T01:35:44.846Z,2.26
2023-01-13T01:40:08.746Z,2.34
2023-01-13T01:44:49.322Z,2.40
2023-01-13T01:49:14.442Z,2.34
2023-01-13T01:53:38.324Z,2.32
2023-01-13T01:58:02.170Z,2.32
2023-01-13T02:02:27.488Z,2.36
2023-01-13T02:06:51.412Z,2.37
2023-01-13T02:11:16.281Z,2.41
2023-01-13T02:15:40.193Z,2.47
2023-01-13T02:20:09.943Z,2.49
2023-01-13T02:25:16.603Z,2.46
2023-01-13T02:29:44.380Z,2.51
2023-01-13T02:34:26.554Z,2.54
2023-01-13T02:38:50.586Z,2.53
2023-01-13T02:43:18.616Z,2.56
2023-01-13T02:47:45.285Z,2.59
2023-01-13T02:52:10.139Z,2.66
2023-01-13T02:56:35.103Z,2.71
2023-01-13T03:01:00.184Z,2.72
2023-01-13T03:05:28.671Z,2.75
2023-01-13T03:10:10.686Z,2.76
2023-01-13T03:14:33.930Z,2.81
2023-01-13T03:19:15.991Z,2.73
2023-01-13T03:23:51.846Z,2.62
2023-01-13T03:28:18.230Z,2.56
2023-01-13T03:32:42.187Z,2.50
2023-01-13T03:37:06.232Z,2.52
2023-01-13T03:41:33.673Z,2.57
2023-01-13T03:45:57.352Z,2.46
2023-01-13T03:50:24.869Z,2.48
2023-01-13T03:54:57.557Z,2.56
2023-01-13T03:59:24.222Z,2.47
2023-01-13T04:03:42.318Z,2.39
2023-01-13T04:08:12.258Z,2.42
2023-01-13T04:12:38.223Z,2.53
2023-01-13T04:17:02.184Z,2.54
2023-01-13T04:21:46.094Z,2.47
2023-01-13T04:26:12.059Z,2.46
2023-01-13T04:30:26.220Z,2.45
2023-01-13T04:34:50.133Z,2.47
2023-01-13T04:39:15.124Z,2.56
2023-01-13T04:43:39.036Z,2.67
2023-01-13T04:48:02.180Z,2.72
2023-01-13T04:52:26.104Z,2.73
2023-01-13T04:56:50.038Z,2.78
2023-01-13T05:01:14.190Z,2.74
2023-01-13T05:05:38.476Z,2.65
2023-01-13T05:10:01.314Z,2.53
2023-01-13T05:14:23.530Z,2.45
2023-01-13T05:18:47.580Z,2.43
2023-01-13T05:23:10.124Z,2.39
2023-01-13T05:27:34.213Z,2.48
2023-01-13T05:31:58.156Z,2.57
2023-01-13T05:36:22.063Z,2.59
2023-01-13T05:40:44.468Z,2.62
2023-01-13T05:45:08.523Z,2.58
2023-01-13T05:49:25.056Z,2.54
2023-01-13T05:53:28.617Z,2.48
2023-01-13T05:57:52.664Z,2.51
2023-01-13T06:02:16.537Z,2.44
2023-01-13T06:06:42.029Z,2.41
2023-01-13T06:11:07.083Z,2.42
2023-01-13T06:15:31.046Z,2.43
2023-01-13T06:19:55.083Z,2.47
2023-01-13T06:24:19.041Z,2.50
2023-01-13T06:28:42.916Z,2.53
2023-01-13T06:33:06.909Z,2.59
2023-01-13T06:37:31.914Z,2.64
2023-01-13T06:41:54.256Z,2.70
2023-01-13T06:46:21.290Z,2.63
2023-01-13T06:50:45.238Z,2.60
2023-01-13T06:55:01.645Z,2.58
2023-01-13T06:59:25.719Z,2.56
2023-01-13T07:03:49.612Z,2.46
2023-01-13T07:08:13.524Z,2.44
2023-01-13T07:12:43.110Z,2.45
2023-01-13T07:17:14.804Z,2.47
2023-01-13T07:21:41.344Z,2.48
2023-01-13T07:25:45.100Z,2.54
2023-01-13T07:30:09.089Z,2.53
2023-01-13T07:34:33.181Z,2.49
2023-01-13T07:38:57.138Z,2.50
2023-01-13T07:43:19.560Z,2.51
2023-01-13T07:47:42.075Z,2.53
2023-01-13T07:52:05.954Z,2.54
2023-01-13T07:56:31.051Z,2.55
2023-01-13T08:00:55.317Z,2.53
2023-01-13T08:05:20.403Z,2.52
2023-01-13T08:09:44.393Z,2.55
2023-01-13T08:14:18.314Z,2.60
2023-01-13T08:18:42.259Z,2.57
2023-01-13T08:23:07.390Z,2.61
2023-01-13T08:27:33.667Z,2.65
2023-01-13T08:31:50.175Z,2.60
2023-01-13T08:36:08.227Z,2.53
2023-01-13T08:40:32.215Z,2.53
2023-01-13T08:44:56.099Z,2.60
2023-01-13T08:49:12.941Z,2.65
2023-01-13T08:53:37.843Z,2.62
2023-01-13T08:58:14.683Z,2.60
2023-01-13T09:02:38.651Z,2.62
2023-01-13T09:07:04.735Z,2.61
2023-01-13T09:11:27.173Z,2.55
2023-01-13T09:15:51.171Z,2.52
2023-01-13T09:20:15.129Z,2.51
2023-01-13T09:24:39.106Z,2.50
2023-01-13T09:29:03.019Z,2.50
2023-01-13T09:33:24.613Z,2.51
2023-01-13T09:37:48.442Z,2.51
2023-01-13T09:42:16.935Z,2.51
2023-01-13T09:46:42.364Z,2.54
2023-01-13T09:51:12.296Z,2.52
2023-01-13T09:55:43.332Z,2.52
2023-01-13T10:00:09.799Z,2.54
2023-01-13T10:04:13.524Z,2.55
2023-01-13T10:08:37.464Z,2.54
2023-01-13T10:12:59.933Z,2.55
2023-01-13T10:17:26.590Z,2.60
2023-01-13T10:21:59.821Z,2.62
2023-01-13T10:26:32.264Z,2.56
2023-01-13T10:30:58.962Z,2.51
2023-01-13T10:35:02.489Z,2.50
2023-01-13T10:39:35.455Z,2.48
2023-01-13T10:44:08.574Z,2.49
2023-01-13T10:48:48.573Z,2.48
2023-01-13T10:53:15.421Z,2.47
2023-01-13T10:57:54.521Z,2.48
2023-01-13T11:02:26.423Z,2.51
2023-01-13T11:06:51.338Z,2.55
2023-01-13T11:11:22.421Z,2.53
2023-01-13T11:15:46.151Z,2.55
2023-01-13T11:20:10.104Z,2.56
2023-01-13T11:24:39.783Z,2.56
2023-01-13T11:29:18.869Z,2.56
2023-01-13T11:33:51.511Z,2.54
2023-01-13T11:38:19.271Z,2.47
2023-01-13T11:42:43.719Z,2.47
2023-01-13T11:47:07.260Z,2.51
2023-01-13T11:51:46.356Z,2.52
2023-01-13T11:56:19.555Z,2.53
2023-01-13T12:00:42.492Z,2.57
2023-01-13T12:05:24.663Z,2.55
2023-01-13T12:09:57.536Z,2.54
2023-01-13T12:14:30.418Z,2.58
2023-01-13T12:19:15.306Z,2.56
2023-01-13T12:23:39.307Z,2.64
2023-01-13T12:28:14.915Z,2.64
2023-01-13T12:32:38.857Z,2.70
2023-01-13T12:37:08.837Z,2.82
2023-01-13T12:41:41.659Z,2.82
2023-01-13T12:46:12.779Z,2.85
2023-01-13T12:50:37.750Z,2.72
2023-01-13T12:55:10.544Z,2.62
2023-01-13T12:59:34.432Z,2.54
2023-01-13T13:04:13.422Z,2.50
2023-01-13T13:08:35.717Z,2.47
2023-01-13T13:13:11.014Z,2.57
2023-01-13T13:17:37.918Z,2.65
2023-01-13T13:22:07.617Z,2.69
2023-01-13T13:26:26.290Z,2.72
2023-01-13T13:31:11.669Z,2.72
2023-01-13T13:35:43.379Z,2.63
2023-01-13T13:40:14.525Z,2.59
2023-01-13T13:44:40.434Z,2.55
2023-01-13T13:49:02.983Z,2.57
2023-01-13T13:53:26.318Z,2.57
2023-01-13T13:57:43.718Z,2.59
2023-01-13T14:02:00.753Z,2.61
2023-01-13T14:06:43.022Z,2.65
2023-01-13T14:11:10.299Z,2.66
2023-01-13T14:15:35.255Z,2.69
2023-01-13T14:19:59.122Z,2.74
2023-01-13T14:24:25.375Z,2.76
2023-01-13T14:28:58.437Z,2.75
2023-01-13T14:33:22.409Z,2.73
2023-01-13T14:38:04.454Z,2.78
2023-01-13T14:42:29.392Z,2.82
2023-01-13T14:46:56.034Z,2.78
2023-01-13T14:51:12.569Z,2.82
2023-01-13T14:55:59.189Z,2.86
2023-01-13T15:00:24.682Z,2.83
2023-01-13T15:05:26.839Z,2.84
2023-01-13T15:09:53.636Z,2.83
2023-01-13T15:14:26.568Z,2.85
2023-01-13T15:18:52.945Z,2.81
2023-01-13T15:23:16.875Z,2.85
2023-01-13T15:27:40.890Z,2.89
2023-01-13T15:32:05.434Z,2.84
2023-01-13T15:36:29.297Z,2.83
2023-01-13T15:40:55.880Z,2.87
2023-01-13T15:45:18.439Z,2.91
2023-01-13T15:49:48.627Z,2.90
2023-01-13T15:54:12.656Z,2.92
2023-01-13T15:58:36.597Z,3.03
2023-01-13T16:02:53.170Z,3.14
2023-01-13T16:07:18.110Z,3.16
2023-01-13T16:11:42.182Z,3.16
2023-01-13T16:16:06.140Z,3.13
2023-01-13T16:20:22.948Z,3.10
2023-01-13T16:24:48.013Z,3.09
2023-01-13T16:29:14.813Z,3.15
2023-01-13T16:33:41.034Z,3.21
2023-01-13T16:38:09.411Z,3.17
2023-01-13T16:42:33.429Z,3.24
2023-01-13T16:46:51.262Z,3.29
2023-01-13T16:51:21.152Z,3.25
2023-01-13T16:55:44.857Z,3.19
2023-01-13T17:00:09.945Z,3.13
2023-01-13T17:04:33.839Z,3.16
2023-01-13T17:08:58.811Z,3.20
2023-01-13T17:13:22.662Z,3.19
2023-01-13T17:17:47.202Z,3.14
2023-01-13T17:22:11.263Z,3.19
2023-01-13T17:26:35.300Z,3.27
2023-01-13T17:30:59.387Z,3.21
2023-01-13T17:35:22.878Z,3.09
2023-01-13T17:39:47.071Z,2.98
2023-01-13T17:44:11.022Z,2.99
2023-01-13T17:48:37.936Z,2.99
2023-01-13T17:53:02.268Z,3.12
2023-01-13T17:57:26.290Z,3.20
2023-01-13T18:01:50.939Z,3.29
2023-01-13T18:06:14.793Z,3.28
2023-01-13T18:10:39.188Z,3.25
2023-01-13T18:15:03.057Z,3.29
2023-01-13T18:19:26.208Z,3.23
2023-01-13T18:23:57.283Z,3.08
2023-01-13T18:28:22.268Z,3.06
2023-01-13T18:32:46.240Z,3.01
2023-01-13T18:37:10.350Z,3.02
2023-01-13T18:41:32.763Z,2.99
2023-01-13T18:45:56.891Z,2.99
2023-01-13T18:50:21.003Z,2.99
2023-01-13T18:54:44.888Z,3.02
2023-01-13T18:59:09.816Z,3.05
2023-01-13T19:03:33.812Z,3.04
2023-01-13T19:07:56.730Z,3.06
2023-01-13T19:12:20.679Z,3.11
2023-01-13T19:16:44.660Z,3.03
2023-01-13T19:21:08.825Z,3.02
2023-01-13T19:25:33.169Z,3.02
2023-01-13T19:29:57.083Z,3.03
2023-01-13T19:34:21.927Z,2.99
2023-01-13T19:38:45.974Z,2.93
2023-01-13T19:43:08.487Z,2.94
2023-01-13T19:47:32.533Z,2.94
2023-01-13T19:51:56.653Z,2.83
2023-01-13T19:56:20.980Z,2.78
2023-01-13T20:00:45.026Z,2.83
2023-01-13T20:05:08.961Z,2.88
2023-01-13T20:09:33.881Z,2.95
2023-01-13T20:13:57.571Z,2.94
2023-01-13T20:18:21.116Z,2.94
2023-01-13T20:22:44.990Z,2.99
2023-01-13T20:27:08.890Z,3.03
2023-01-13T20:31:33.991Z,3.04
2023-01-13T20:35:58.055Z,3.00
2023-01-13T20:40:23.051Z,2.97
2023-01-13T20:44:49.025Z,2.96
2023-01-13T20:49:13.119Z,2.91
2023-01-13T20:53:36.996Z,2.82
2023-01-13T20:58:00.929Z,2.73
2023-01-13T21:02:24.531Z,2.63
2023-01-13T21:06:49.565Z,2.62
2023-01-13T21:11:14.559Z,2.69
2023-01-13T21:15:38.479Z,2.81
2023-01-13T21:20:04.332Z,2.91
2023-01-13T21:24:28.635Z,2.94
2023-01-13T21:28:56.683Z,2.95
2023-01-13T21:33:20.713Z,2.97
2023-01-13T21:37:44.649Z,2.94
2023-01-13T21:42:07.068Z,2.92
2023-01-13T21:46:30.444Z,2.95
2023-01-13T21:50:52.454Z,2.96
2023-01-13T21:55:16.078Z,2.90
2023-01-13T21:59:41.141Z,2.94
2023-01-13T22:04:05.085Z,2.86
2023-01-13T22:08:30.059Z,2.70
2023-01-13T22:12:53.964Z,2.61
2023-01-13T22:17:18.230Z,2.65
2023-01-13T22:21:43.184Z,2.65
2023-01-13T22:26:07.275Z,2.65
2023-01-13T22:30:31.214Z,2.75
2023-01-13T22:34:55.301Z,2.81
2023-01-13T22:39:19.200Z,2.80
2023-01-13T22:43:43.206Z,2.83
2023-01-13T22:48:07.079Z,2.89
2023-01-13T22:52:32.109Z,2.93
2023-01-13T22:56:56.055Z,2.83
2023-01-13T23:01:20.251Z,2.77
2023-01-13T23:05:44.162Z,2.85
2023-01-13T23:10:09.120Z,2.93
2023-01-13T23:14:38.756Z,2.96
2023-01-13T23:19:02.716Z,2.84
2023-01-13T23:23:19.200Z,2.71
2023-01-13T23:27:43.240Z,2.69
2023-01-13T23:32:07.115Z,2.78
2023-01-13T23:36:32.267Z,2.78
2023-01-13T23:40:56.336Z,2.79
2023-01-13T23:45:20.300Z,2.68
2023-01-13T23:49:44.241Z,2.61
2023-01-13T23:54:11.768Z,2.56
2023-01-13T23:58:15.387Z,2.52
